sensor_id;sensor_type;location;lat;lon;timestamp;P1;durP1;ratioP1;P2;durP2;ratioP2
10041;SDS011;5061;49.068;12.058;2023-04-24T00:02:29;1.47;;;1.37;;
10041;SDS011;5061;49.068;12.058;2023-04-24T00:05:51;1.23;;;1.10;;
10041;SDS011;5061;49.068;12.058;2023-04-24T00:09:12;1.30;;;1.20;;
10041;SDS011;5061;49.068;12.058;2023-04-24T00:12:32;1.63;;;1.20;;
10041;SDS011;5061;49.068;12.058;2023-04-24T00:15:53;1.80;;;1.20;;
10041;SDS011;5061;49.068;12.058;2023-04-24T00:19:15;1.70;;;1.60;;
10041;SDS011;5061;49.068;12.058;2023-04-24T00:22:36;1.10;;;1.00;;
10041;SDS011;5061;49.068;12.058;2023-04-24T00:25:57;1.63;;;1.17;;
10041;SDS011;5061;49.068;12.058;2023-04-24T00:29:17;1.47;;;1.20;;
10041;SDS011;5061;49.068;12.058;2023-04-24T00:32:38;1.40;;;1.30;;
10041;SDS011;5061;49.068;12.058;2023-04-24T00:35:59;1.80;;;1.60;;
10041;SDS011;5061;49.068;12.058;2023-04-24T00:39:20;3.40;;;1.70;;
10041;SDS011;5061;49.068;12.058;2023-04-24T00:42:41;1.60;;;1.50;;
10041;SDS011;5061;49.068;12.058;2023-04-24T00:46:03;2.30;;;1.67;;
10041;SDS011;5061;49.068;12.058;2023-04-24T00:49:24;1.60;;;1.50;;
10041;SDS011;5061;49.068;12.058;2023-04-24T00:52:44;1.47;;;1.30;;
10041;SDS011;5061;49.068;12.058;2023-04-24T00:56:05;1.80;;;1.57;;
10041;SDS011;5061;49.068;12.058;2023-04-24T00:59:26;2.07;;;1.87;;
10041;SDS011;5061;49.068;12.058;2023-04-24T01:02:46;2.00;;;1.73;;
10041;SDS011;5061;49.068;12.058;2023-04-24T01:06:08;1.40;;;1.30;;
10041;SDS011;5061;49.068;12.058;2023-04-24T01:09:30;1.87;;;1.77;;
10041;SDS011;5061;49.068;12.058;2023-04-24T01:12:51;1.60;;;1.50;;
10041;SDS011;5061;49.068;12.058;2023-04-24T01:16:12;1.63;;;1.47;;
10041;SDS011;5061;49.068;12.058;2023-04-24T01:19:33;1.60;;;1.50;;
10041;SDS011;5061;49.068;12.058;2023-04-24T01:22:54;1.30;;;1.20;;
10041;SDS011;5061;49.068;12.058;2023-04-24T01:26:16;2.33;;;1.80;;
10041;SDS011;5061;49.068;12.058;2023-04-24T01:29:37;1.97;;;1.77;;
10041;SDS011;5061;49.068;12.058;2023-04-24T01:32:58;3.30;;;1.83;;
10041;SDS011;5061;49.068;12.058;2023-04-24T01:36:19;1.53;;;1.43;;
10041;SDS011;5061;49.068;12.058;2023-04-24T01:39:42;2.50;;;1.60;;
10041;SDS011;5061;49.068;12.058;2023-04-24T01:43:03;2.40;;;2.00;;
10041;SDS011;5061;49.068;12.058;2023-04-24T01:46:24;2.57;;;2.20;;
10041;SDS011;5061;49.068;12.058;2023-04-24T01:49:45;2.37;;;2.17;;
10041;SDS011;5061;49.068;12.058;2023-04-24T01:53:07;2.27;;;2.07;;
10041;SDS011;5061;49.068;12.058;2023-04-24T01:56:29;2.40;;;2.20;;
10041;SDS011;5061;49.068;12.058;2023-04-24T01:59:52;3.13;;;2.30;;
10041;SDS011;5061;49.068;12.058;2023-04-24T02:03:13;3.00;;;2.70;;
10041;SDS011;5061;49.068;12.058;2023-04-24T02:06:33;2.63;;;2.43;;
10041;SDS011;5061;49.068;12.058;2023-04-24T02:09:55;1.97;;;1.87;;
10041;SDS011;5061;49.068;12.058;2023-04-24T02:13:15;2.40;;;2.20;;
10041;SDS011;5061;49.068;12.058;2023-04-24T02:16:36;2.63;;;2.43;;
10041;SDS011;5061;49.068;12.058;2023-04-24T02:19:56;2.43;;;2.20;;
10041;SDS011;5061;49.068;12.058;2023-04-24T02:23:17;2.80;;;2.60;;
10041;SDS011;5061;49.068;12.058;2023-04-24T02:26:38;2.73;;;2.40;;
10041;SDS011;5061;49.068;12.058;2023-04-24T02:29:58;3.67;;;2.80;;
10041;SDS011;5061;49.068;12.058;2023-04-24T02:33:19;3.57;;;2.90;;
10041;SDS011;5061;49.068;12.058;2023-04-24T02:36:40;3.00;;;2.70;;
10041;SDS011;5061;49.068;12.058;2023-04-24T02:40:00;2.50;;;2.30;;
10041;SDS011;5061;49.068;12.058;2023-04-24T02:43:21;3.57;;;3.00;;
10041;SDS011;5061;49.068;12.058;2023-04-24T02:46:41;4.37;;;3.80;;
10041;SDS011;5061;49.068;12.058;2023-04-24T02:50:02;4.17;;;3.77;;
10041;SDS011;5061;49.068;12.058;2023-04-24T02:53:24;4.23;;;3.10;;
10041;SDS011;5061;49.068;12.058;2023-04-24T02:56:45;3.20;;;2.90;;
10041;SDS011;5061;49.068;12.058;2023-04-24T03:00:06;3.47;;;3.17;;
10041;SDS011;5061;49.068;12.058;2023-04-24T03:03:27;3.80;;;3.40;;
10041;SDS011;5061;49.068;12.058;2023-04-24T03:06:47;3.73;;;3.33;;
10041;SDS011;5061;49.068;12.058;2023-04-24T03:10:08;2.97;;;2.77;;
10041;SDS011;5061;49.068;12.058;2023-04-24T03:13:29;3.43;;;3.13;;
10041;SDS011;5061;49.068;12.058;2023-04-24T03:16:49;3.60;;;3.30;;
10041;SDS011;5061;49.068;12.058;2023-04-24T03:20:10;3.97;;;3.33;;
10041;SDS011;5061;49.068;12.058;2023-04-24T03:23:31;3.63;;;3.20;;
10041;SDS011;5061;49.068;12.058;2023-04-24T03:26:52;3.00;;;2.70;;
10041;SDS011;5061;49.068;12.058;2023-04-24T03:30:12;3.70;;;3.07;;
10041;SDS011;5061;49.068;12.058;2023-04-24T03:33:33;3.87;;;3.07;;
10041;SDS011;5061;49.068;12.058;2023-04-24T03:36:53;3.10;;;2.40;;
10041;SDS011;5061;49.068;12.058;2023-04-24T03:40:14;2.87;;;2.57;;
10041;SDS011;5061;49.068;12.058;2023-04-24T03:43:35;3.10;;;2.70;;
10041;SDS011;5061;49.068;12.058;2023-04-24T03:46:55;3.40;;;3.10;;
10041;SDS011;5061;49.068;12.058;2023-04-24T03:50:18;2.03;;;1.93;;
10041;SDS011;5061;49.068;12.058;2023-04-24T03:53:39;2.53;;;2.33;;
10041;SDS011;5061;49.068;12.058;2023-04-24T03:56:59;2.67;;;2.47;;
10041;SDS011;5061;49.068;12.058;2023-04-24T04:00:21;3.27;;;2.97;;
10041;SDS011;5061;49.068;12.058;2023-04-24T04:03:42;3.20;;;2.60;;
10041;SDS011;5061;49.068;12.058;2023-04-24T04:07:02;2.23;;;2.03;;
10041;SDS011;5061;49.068;12.058;2023-04-24T04:10:23;2.67;;;2.43;;
10041;SDS011;5061;49.068;12.058;2023-04-24T04:13:44;2.80;;;2.50;;
10041;SDS011;5061;49.068;12.058;2023-04-24T04:17:05;2.57;;;2.20;;
10041;SDS011;5061;49.068;12.058;2023-04-24T04:23:56;2.27;;;2.07;;
10041;SDS011;5061;49.068;12.058;2023-04-24T04:27:17;2.07;;;1.90;;
10041;SDS011;5061;49.068;12.058;2023-04-24T04:30:38;2.97;;;2.07;;
10041;SDS011;5061;49.068;12.058;2023-04-24T04:34:02;2.57;;;2.37;;
10041;SDS011;5061;49.068;12.058;2023-04-24T04:37:23;1.87;;;1.77;;
10041;SDS011;5061;49.068;12.058;2023-04-24T04:40:45;2.33;;;2.13;;
10041;SDS011;5061;49.068;12.058;2023-04-24T04:44:07;2.40;;;2.20;;
10041;SDS011;5061;49.068;12.058;2023-04-24T04:47:29;2.03;;;1.83;;
10041;SDS011;5061;49.068;12.058;2023-04-24T04:50:51;7.10;;;2.20;;
10041;SDS011;5061;49.068;12.058;2023-04-24T04:54:12;2.07;;;1.97;;
10041;SDS011;5061;49.068;12.058;2023-04-24T04:57:33;2.17;;;1.93;;
10041;SDS011;5061;49.068;12.058;2023-04-24T05:00:55;2.20;;;2.00;;
10041;SDS011;5061;49.068;12.058;2023-04-24T05:04:17;4.97;;;2.67;;
10041;SDS011;5061;49.068;12.058;2023-04-24T05:07:38;2.10;;;1.90;;
10041;SDS011;5061;49.068;12.058;2023-04-24T05:10:59;2.23;;;2.03;;
10041;SDS011;5061;49.068;12.058;2023-04-24T05:14:21;2.43;;;2.20;;
10041;SDS011;5061;49.068;12.058;2023-04-24T05:17:43;2.27;;;2.07;;
10041;SDS011;5061;49.068;12.058;2023-04-24T05:21:04;3.67;;;2.63;;
10041;SDS011;5061;49.068;12.058;2023-04-24T05:24:26;2.40;;;2.20;;
10041;SDS011;5061;49.068;12.058;2023-04-24T05:27:50;3.93;;;2.30;;
10041;SDS011;5061;49.068;12.058;2023-04-24T05:31:13;2.80;;;2.20;;
10041;SDS011;5061;49.068;12.058;2023-04-24T05:34:37;2.70;;;2.43;;
10041;SDS011;5061;49.068;12.058;2023-04-24T05:37:58;2.80;;;1.90;;
10041;SDS011;5061;49.068;12.058;2023-04-24T05:41:18;2.70;;;2.30;;
10041;SDS011;5061;49.068;12.058;2023-04-24T05:44:39;2.20;;;2.00;;
10041;SDS011;5061;49.068;12.058;2023-04-24T05:48:00;2.60;;;2.40;;
10041;SDS011;5061;49.068;12.058;2023-04-24T05:51:20;1.67;;;1.57;;
10041;SDS011;5061;49.068;12.058;2023-04-24T05:54:41;2.37;;;2.17;;
10041;SDS011;5061;49.068;12.058;2023-04-24T05:58:01;2.70;;;2.50;;
10041;SDS011;5061;49.068;12.058;2023-04-24T06:01:22;2.07;;;1.97;;
10041;SDS011;5061;49.068;12.058;2023-04-24T06:04:43;2.33;;;2.13;;
10041;SDS011;5061;49.068;12.058;2023-04-24T06:08:04;2.47;;;2.27;;
10041;SDS011;5061;49.068;12.058;2023-04-24T06:11:25;3.23;;;2.63;;
10041;SDS011;5061;49.068;12.058;2023-04-24T06:14:47;2.27;;;2.07;;
10041;SDS011;5061;49.068;12.058;2023-04-24T06:18:08;2.77;;;2.57;;
10041;SDS011;5061;49.068;12.058;2023-04-24T06:21:30;2.23;;;2.03;;
10041;SDS011;5061;49.068;12.058;2023-04-24T06:24:51;2.30;;;2.10;;
10041;SDS011;5061;49.068;12.058;2023-04-24T06:28:12;2.40;;;2.20;;
10041;SDS011;5061;49.068;12.058;2023-04-24T06:31:32;2.47;;;2.27;;
10041;SDS011;5061;49.068;12.058;2023-04-24T06:34:57;2.20;;;2.00;;
10041;SDS011;5061;49.068;12.058;2023-04-24T06:38:17;2.00;;;1.90;;
10041;SDS011;5061;49.068;12.058;2023-04-24T06:41:38;1.90;;;1.80;;
10041;SDS011;5061;49.068;12.058;2023-04-24T06:44:59;1.97;;;1.83;;
10041;SDS011;5061;49.068;12.058;2023-04-24T06:48:21;1.60;;;1.50;;
10041;SDS011;5061;49.068;12.058;2023-04-24T06:51:41;2.03;;;1.67;;
10041;SDS011;5061;49.068;12.058;2023-04-24T06:55:03;3.67;;;2.17;;
10041;SDS011;5061;49.068;12.058;2023-04-24T06:58:24;1.80;;;1.70;;
10041;SDS011;5061;49.068;12.058;2023-04-24T07:01:45;1.43;;;1.33;;
10041;SDS011;5061;49.068;12.058;2023-04-24T07:05:06;1.60;;;1.50;;
10041;SDS011;5061;49.068;12.058;2023-04-24T07:08:28;1.50;;;1.40;;
10041;SDS011;5061;49.068;12.058;2023-04-24T07:11:50;1.60;;;1.40;;
10041;SDS011;5061;49.068;12.058;2023-04-24T07:15:11;1.43;;;1.33;;
10041;SDS011;5061;49.068;12.058;2023-04-24T07:18:32;1.90;;;1.30;;
10041;SDS011;5061;49.068;12.058;2023-04-24T07:21:53;2.03;;;1.30;;
10041;SDS011;5061;49.068;12.058;2023-04-24T07:25:15;1.40;;;1.30;;
10041;SDS011;5061;49.068;12.058;2023-04-24T07:28:35;1.50;;;1.40;;
10041;SDS011;5061;49.068;12.058;2023-04-24T07:31:56;1.83;;;1.40;;
10041;SDS011;5061;49.068;12.058;2023-04-24T07:35:17;1.37;;;1.27;;
10041;SDS011;5061;49.068;12.058;2023-04-24T07:38:37;1.40;;;1.30;;
10041;SDS011;5061;49.068;12.058;2023-04-24T07:41:58;1.50;;;1.40;;
10041;SDS011;5061;49.068;12.058;2023-04-24T07:45:19;1.30;;;1.20;;
10041;SDS011;5061;49.068;12.058;2023-04-24T07:48:40;1.13;;;1.03;;
10041;SDS011;5061;49.068;12.058;2023-04-24T07:52:00;1.60;;;1.13;;
10041;SDS011;5061;49.068;12.058;2023-04-24T07:55:22;2.30;;;1.30;;
10041;SDS011;5061;49.068;12.058;2023-04-24T07:58:43;2.27;;;1.30;;
10041;SDS011;5061;49.068;12.058;2023-04-24T08:02:03;1.10;;;1.00;;
10041;SDS011;5061;49.068;12.058;2023-04-24T08:05:26;2.60;;;1.57;;
10041;SDS011;5061;49.068;12.058;2023-04-24T08:08:48;4.83;;;1.77;;
10041;SDS011;5061;49.068;12.058;2023-04-24T08:12:09;1.27;;;1.17;;
10041;SDS011;5061;49.068;12.058;2023-04-24T08:15:29;1.27;;;1.17;;
10041;SDS011;5061;49.068;12.058;2023-04-24T08:18:50;1.20;;;1.10;;
10041;SDS011;5061;49.068;12.058;2023-04-24T08:22:11;1.23;;;1.13;;
10041;SDS011;5061;49.068;12.058;2023-04-24T08:25:31;1.10;;;1.00;;
10041;SDS011;5061;49.068;12.058;2023-04-24T08:28:52;1.17;;;1.07;;
10041;SDS011;5061;49.068;12.058;2023-04-24T08:32:13;1.07;;;0.97;;
10041;SDS011;5061;49.068;12.058;2023-04-24T08:35:33;1.13;;;0.90;;
10041;SDS011;5061;49.068;12.058;2023-04-24T08:38:54;1.57;;;1.00;;
10041;SDS011;5061;49.068;12.058;2023-04-24T08:42:15;1.63;;;0.90;;
10041;SDS011;5061;49.068;12.058;2023-04-24T08:45:37;2.73;;;1.20;;
10041;SDS011;5061;49.068;12.058;2023-04-24T08:48:58;1.30;;;1.20;;
10041;SDS011;5061;49.068;12.058;2023-04-24T08:52:19;2.10;;;1.53;;
10041;SDS011;5061;49.068;12.058;2023-04-24T08:55:41;1.30;;;1.10;;
10041;SDS011;5061;49.068;12.058;2023-04-24T08:59:06;2.63;;;1.50;;
10041;SDS011;5061;49.068;12.058;2023-04-24T09:02:27;1.40;;;1.20;;
10041;SDS011;5061;49.068;12.058;2023-04-24T09:05:48;2.27;;;1.40;;
10041;SDS011;5061;49.068;12.058;2023-04-24T09:09:10;1.10;;;1.00;;
10041;SDS011;5061;49.068;12.058;2023-04-24T09:12:31;1.37;;;1.20;;
10041;SDS011;5061;49.068;12.058;2023-04-24T09:15:54;1.30;;;1.20;;
10041;SDS011;5061;49.068;12.058;2023-04-24T09:19:17;1.30;;;1.20;;
10041;SDS011;5061;49.068;12.058;2023-04-24T09:22:37;1.47;;;1.20;;
10041;SDS011;5061;49.068;12.058;2023-04-24T09:25:59;1.17;;;1.00;;
10041;SDS011;5061;49.068;12.058;2023-04-24T09:29:21;1.20;;;1.10;;
10041;SDS011;5061;49.068;12.058;2023-04-24T09:32:42;1.30;;;1.20;;
10041;SDS011;5061;49.068;12.058;2023-04-24T09:36:02;1.17;;;1.07;;
10041;SDS011;5061;49.068;12.058;2023-04-24T09:39:23;1.60;;;1.20;;
10041;SDS011;5061;49.068;12.058;2023-04-24T09:42:45;1.30;;;1.20;;
10041;SDS011;5061;49.068;12.058;2023-04-24T09:46:06;1.10;;;1.00;;
10041;SDS011;5061;49.068;12.058;2023-04-24T09:49:46;1.77;;;1.27;;
10041;SDS011;5061;49.068;12.058;2023-04-24T09:53:07;1.10;;;1.00;;
10041;SDS011;5061;49.068;12.058;2023-04-24T09:56:31;1.30;;;1.20;;
10041;SDS011;5061;49.068;12.058;2023-04-24T09:59:53;1.70;;;1.30;;
10041;SDS011;5061;49.068;12.058;2023-04-24T10:03:14;1.10;;;1.00;;
10041;SDS011;5061;49.068;12.058;2023-04-24T10:06:35;6.70;;;1.10;;
10041;SDS011;5061;49.068;12.058;2023-04-24T10:09:56;2.90;;;1.23;;
10041;SDS011;5061;49.068;12.058;2023-04-24T10:13:17;1.20;;;1.03;;
10041;SDS011;5061;49.068;12.058;2023-04-24T10:16:38;1.37;;;1.23;;
10041;SDS011;5061;49.068;12.058;2023-04-24T10:20:00;1.20;;;1.10;;
10041;SDS011;5061;49.068;12.058;2023-04-24T10:23:21;1.17;;;1.07;;
10041;SDS011;5061;49.068;12.058;2023-04-24T10:26:43;1.20;;;1.10;;
10041;SDS011;5061;49.068;12.058;2023-04-24T10:30:05;2.13;;;1.20;;
10041;SDS011;5061;49.068;12.058;2023-04-24T10:33:27;1.23;;;1.10;;
10041;SDS011;5061;49.068;12.058;2023-04-24T10:36:51;2.27;;;1.20;;
10041;SDS011;5061;49.068;12.058;2023-04-24T10:40:16;2.23;;;1.47;;
10041;SDS011;5061;49.068;12.058;2023-04-24T10:43:39;2.90;;;1.57;;
10041;SDS011;5061;49.068;12.058;2023-04-24T10:47:00;1.40;;;1.30;;
10041;SDS011;5061;49.068;12.058;2023-04-24T10:50:21;1.40;;;1.30;;
10041;SDS011;5061;49.068;12.058;2023-04-24T10:53:42;1.37;;;1.27;;
10041;SDS011;5061;49.068;12.058;2023-04-24T11:00:42;1.73;;;1.47;;
10041;SDS011;5061;49.068;12.058;2023-04-24T11:04:06;1.60;;;1.20;;
10041;SDS011;5061;49.068;12.058;2023-04-24T11:07:27;1.67;;;1.37;;
10041;SDS011;5061;49.068;12.058;2023-04-24T11:11:21;1.87;;;1.67;;
10041;SDS011;5061;49.068;12.058;2023-04-24T11:18:15;2.97;;;1.27;;
10041;SDS011;5061;49.068;12.058;2023-04-24T11:21:46;2.03;;;1.30;;
10041;SDS011;5061;49.068;12.058;2023-04-24T11:25:10;1.70;;;1.60;;
10041;SDS011;5061;49.068;12.058;2023-04-24T11:28:33;1.20;;;1.10;;
10041;SDS011;5061;49.068;12.058;2023-04-24T11:31:54;1.20;;;1.10;;
10041;SDS011;5061;49.068;12.058;2023-04-24T11:35:17;6.10;;;2.00;;
10041;SDS011;5061;49.068;12.058;2023-04-24T11:38:40;1.60;;;1.50;;
10041;SDS011;5061;49.068;12.058;2023-04-24T11:42:02;2.40;;;1.20;;
10041;SDS011;5061;49.068;12.058;2023-04-24T11:45:25;1.53;;;1.20;;
10041;SDS011;5061;49.068;12.058;2023-04-24T11:48:49;1.47;;;1.10;;
10041;SDS011;5061;49.068;12.058;2023-04-24T11:52:10;1.50;;;1.10;;
10041;SDS011;5061;49.068;12.058;2023-04-24T11:55:30;1.10;;;1.00;;
10041;SDS011;5061;49.068;12.058;2023-04-24T11:58:52;1.57;;;1.10;;
10041;SDS011;5061;49.068;12.058;2023-04-24T12:02:24;1.27;;;1.17;;
10041;SDS011;5061;49.068;12.058;2023-04-24T12:05:45;1.20;;;1.10;;
10041;SDS011;5061;49.068;12.058;2023-04-24T12:09:06;1.67;;;1.33;;
10041;SDS011;5061;49.068;12.058;2023-04-24T12:12:28;1.67;;;1.33;;
10041;SDS011;5061;49.068;12.058;2023-04-24T12:19:22;1.60;;;1.50;;
10041;SDS011;5061;49.068;12.058;2023-04-24T12:22:47;2.07;;;1.40;;
10041;SDS011;5061;49.068;12.058;2023-04-24T12:26:10;2.57;;;1.80;;
10041;SDS011;5061;49.068;12.058;2023-04-24T12:29:31;1.77;;;1.30;;
10041;SDS011;5061;49.068;12.058;2023-04-24T12:32:52;2.30;;;1.40;;
10041;SDS011;5061;49.068;12.058;2023-04-24T12:36:14;1.77;;;1.37;;
10041;SDS011;5061;49.068;12.058;2023-04-24T12:39:35;2.80;;;1.23;;
10041;SDS011;5061;49.068;12.058;2023-04-24T12:42:56;1.63;;;1.53;;
10041;SDS011;5061;49.068;12.058;2023-04-24T12:46:16;1.30;;;1.20;;
10041;SDS011;5061;49.068;12.058;2023-04-24T12:49:37;1.20;;;1.10;;
10041;SDS011;5061;49.068;12.058;2023-04-24T12:52:58;1.73;;;1.40;;
10041;SDS011;5061;49.068;12.058;2023-04-24T12:56:18;1.40;;;0.90;;
10041;SDS011;5061;49.068;12.058;2023-04-24T12:59:39;1.23;;;1.00;;
10041;SDS011;5061;49.068;12.058;2023-04-24T13:03:00;1.20;;;1.10;;
10041;SDS011;5061;49.068;12.058;2023-04-24T13:06:21;1.50;;;1.10;;
10041;SDS011;5061;49.068;12.058;2023-04-24T13:09:42;1.00;;;0.90;;
10041;SDS011;5061;49.068;12.058;2023-04-24T13:13:03;1.53;;;0.90;;
10041;SDS011;5061;49.068;12.058;2023-04-24T13:16:24;1.30;;;1.20;;
10041;SDS011;5061;49.068;12.058;2023-04-24T13:19:45;2.07;;;1.03;;
10041;SDS011;5061;49.068;12.058;2023-04-24T13:23:05;1.27;;;1.00;;
10041;SDS011;5061;49.068;12.058;2023-04-24T13:26:26;1.30;;;1.20;;
10041;SDS011;5061;49.068;12.058;2023-04-24T13:29:47;0.83;;;0.83;;
10041;SDS011;5061;49.068;12.058;2023-04-24T13:33:07;5.20;;;1.20;;
10041;SDS011;5061;49.068;12.058;2023-04-24T13:36:28;1.33;;;1.23;;
10041;SDS011;5061;49.068;12.058;2023-04-24T13:39:50;1.13;;;1.03;;
10041;SDS011;5061;49.068;12.058;2023-04-24T13:43:11;0.80;;;0.70;;
10041;SDS011;5061;49.068;12.058;2023-04-24T13:46:31;1.00;;;0.90;;
10041;SDS011;5061;49.068;12.058;2023-04-24T13:49:52;2.77;;;1.10;;
10041;SDS011;5061;49.068;12.058;2023-04-24T13:53:14;1.47;;;1.10;;
10041;SDS011;5061;49.068;12.058;2023-04-24T13:56:35;1.20;;;1.10;;
10041;SDS011;5061;49.068;12.058;2023-04-24T13:59:55;1.30;;;1.20;;
10041;SDS011;5061;49.068;12.058;2023-04-24T14:03:21;1.40;;;1.20;;
10041;SDS011;5061;49.068;12.058;2023-04-24T14:06:41;1.50;;;1.40;;
10041;SDS011;5061;49.068;12.058;2023-04-24T14:10:03;1.00;;;0.90;;
10041;SDS011;5061;49.068;12.058;2023-04-24T14:13:24;1.20;;;1.10;;
10041;SDS011;5061;49.068;12.058;2023-04-24T14:16:45;1.77;;;1.47;;
10041;SDS011;5061;49.068;12.058;2023-04-24T14:20:06;3.07;;;1.40;;
10041;SDS011;5061;49.068;12.058;2023-04-24T14:23:27;1.60;;;1.50;;
10041;SDS011;5061;49.068;12.058;2023-04-24T14:26:48;1.83;;;1.30;;
10041;SDS011;5061;49.068;12.058;2023-04-24T14:30:09;2.00;;;1.37;;
10041;SDS011;5061;49.068;12.058;2023-04-24T14:33:30;1.37;;;1.27;;
10041;SDS011;5061;49.068;12.058;2023-04-24T14:36:51;1.93;;;1.63;;
10041;SDS011;5061;49.068;12.058;2023-04-24T14:40:13;2.90;;;1.80;;
10041;SDS011;5061;49.068;12.058;2023-04-24T14:43:34;1.40;;;1.20;;
10041;SDS011;5061;49.068;12.058;2023-04-24T14:46:55;1.50;;;1.30;;
10041;SDS011;5061;49.068;12.058;2023-04-24T14:50:15;1.83;;;1.40;;
10041;SDS011;5061;49.068;12.058;2023-04-24T14:53:36;2.13;;;1.20;;
10041;SDS011;5061;49.068;12.058;2023-04-24T14:56:57;1.97;;;1.30;;
10041;SDS011;5061;49.068;12.058;2023-04-24T15:00:18;1.70;;;1.40;;
10041;SDS011;5061;49.068;12.058;2023-04-24T15:03:40;1.73;;;1.30;;
10041;SDS011;5061;49.068;12.058;2023-04-24T15:07:01;1.43;;;1.30;;
10041;SDS011;5061;49.068;12.058;2023-04-24T15:10:21;1.40;;;1.30;;
10041;SDS011;5061;49.068;12.058;2023-04-24T15:13:43;2.73;;;1.10;;
10041;SDS011;5061;49.068;12.058;2023-04-24T15:17:07;2.50;;;1.27;;
10041;SDS011;5061;49.068;12.058;2023-04-24T15:20:28;3.40;;;1.50;;
10041;SDS011;5061;49.068;12.058;2023-04-24T15:23:48;1.43;;;1.33;;
10041;SDS011;5061;49.068;12.058;2023-04-24T15:27:10;1.50;;;1.40;;
10041;SDS011;5061;49.068;12.058;2023-04-24T15:30:31;2.33;;;1.63;;
10041;SDS011;5061;49.068;12.058;2023-04-24T15:33:52;1.63;;;1.43;;
10041;SDS011;5061;49.068;12.058;2023-04-24T15:37:12;1.70;;;1.60;;
10041;SDS011;5061;49.068;12.058;2023-04-24T15:40:33;1.77;;;1.53;;
10041;SDS011;5061;49.068;12.058;2023-04-24T15:43:54;1.60;;;1.50;;
10041;SDS011;5061;49.068;12.058;2023-04-24T15:47:15;1.90;;;1.50;;
10041;SDS011;5061;49.068;12.058;2023-04-24T15:50:43;1.20;;;1.10;;
10041;SDS011;5061;49.068;12.058;2023-04-24T15:54:05;1.47;;;1.37;;
10041;SDS011;5061;49.068;12.058;2023-04-24T15:57:29;3.00;;;1.40;;
10041;SDS011;5061;49.068;12.058;2023-04-24T16:00:54;1.50;;;1.40;;
10041;SDS011;5061;49.068;12.058;2023-04-24T16:04:22;1.40;;;1.30;;
10041;SDS011;5061;49.068;12.058;2023-04-24T16:07:47;2.53;;;1.20;;
10041;SDS011;5061;49.068;12.058;2023-04-24T16:11:10;1.30;;;1.20;;
10041;SDS011;5061;49.068;12.058;2023-04-24T16:14:31;1.40;;;1.30;;
10041;SDS011;5061;49.068;12.058;2023-04-24T16:17:52;1.43;;;1.33;;
10041;SDS011;5061;49.068;12.058;2023-04-24T16:21:13;1.27;;;1.17;;
10041;SDS011;5061;49.068;12.058;2023-04-24T16:24:33;2.27;;;1.40;;
10041;SDS011;5061;49.068;12.058;2023-04-24T16:27:54;4.50;;;1.73;;
10041;SDS011;5061;49.068;12.058;2023-04-24T16:31:15;1.60;;;1.50;;
10041;SDS011;5061;49.068;12.058;2023-04-24T16:34:36;1.77;;;1.30;;
10041;SDS011;5061;49.068;12.058;2023-04-24T16:38:00;1.47;;;1.37;;
10041;SDS011;5061;49.068;12.058;2023-04-24T16:41:22;1.30;;;1.20;;
10041;SDS011;5061;49.068;12.058;2023-04-24T16:44:43;1.30;;;1.20;;
10041;SDS011;5061;49.068;12.058;2023-04-24T16:48:03;1.77;;;1.50;;
10041;SDS011;5061;49.068;12.058;2023-04-24T16:51:24;1.33;;;1.23;;
10041;SDS011;5061;49.068;12.058;2023-04-24T16:54:46;6.33;;;1.47;;
10041;SDS011;5061;49.068;12.058;2023-04-24T16:58:07;1.80;;;1.50;;
10041;SDS011;5061;49.068;12.058;2023-04-24T17:01:27;2.33;;;1.50;;
10041;SDS011;5061;49.068;12.058;2023-04-24T17:04:48;2.50;;;1.73;;
10041;SDS011;5061;49.068;12.058;2023-04-24T17:08:09;1.30;;;1.20;;
10041;SDS011;5061;49.068;12.058;2023-04-24T17:11:29;1.53;;;1.43;;
10041;SDS011;5061;49.068;12.058;2023-04-24T17:14:50;1.53;;;1.43;;
10041;SDS011;5061;49.068;12.058;2023-04-24T17:18:11;1.93;;;1.30;;
10041;SDS011;5061;49.068;12.058;2023-04-24T17:21:32;3.77;;;1.80;;
10041;SDS011;5061;49.068;12.058;2023-04-24T17:24:53;2.30;;;1.60;;
10041;SDS011;5061;49.068;12.058;2023-04-24T17:28:21;1.93;;;1.77;;
10041;SDS011;5061;49.068;12.058;2023-04-24T17:31:47;2.20;;;1.67;;
10041;SDS011;5061;49.068;12.058;2023-04-24T17:35:07;1.87;;;1.67;;
10041;SDS011;5061;49.068;12.058;2023-04-24T17:38:29;1.93;;;1.73;;
10041;SDS011;5061;49.068;12.058;2023-04-24T17:41:50;1.63;;;1.53;;
10041;SDS011;5061;49.068;12.058;2023-04-24T17:45:10;2.53;;;1.60;;
10041;SDS011;5061;49.068;12.058;2023-04-24T17:48:31;1.70;;;1.60;;
10041;SDS011;5061;49.068;12.058;2023-04-24T17:51:52;2.43;;;2.17;;
10041;SDS011;5061;49.068;12.058;2023-04-24T17:55:12;1.67;;;1.57;;
10041;SDS011;5061;49.068;12.058;2023-04-24T17:58:35;2.90;;;1.93;;
10041;SDS011;5061;49.068;12.058;2023-04-24T18:01:59;2.03;;;1.83;;
10041;SDS011;5061;49.068;12.058;2023-04-24T18:05:20;1.40;;;1.30;;
10041;SDS011;5061;49.068;12.058;2023-04-24T18:08:40;2.70;;;2.30;;
10041;SDS011;5061;49.068;12.058;2023-04-24T18:12:01;2.17;;;1.97;;
10041;SDS011;5061;49.068;12.058;2023-04-24T18:15:23;2.43;;;2.23;;
10041;SDS011;5061;49.068;12.058;2023-04-24T18:18:43;1.77;;;1.60;;
10041;SDS011;5061;49.068;12.058;2023-04-24T18:22:04;6.87;;;1.80;;
10041;SDS011;5061;49.068;12.058;2023-04-24T18:25:25;2.37;;;1.90;;
10041;SDS011;5061;49.068;12.058;2023-04-24T18:28:46;1.63;;;1.40;;
10041;SDS011;5061;49.068;12.058;2023-04-24T18:32:06;3.40;;;1.80;;
10041;SDS011;5061;49.068;12.058;2023-04-24T18:35:27;2.40;;;1.37;;
10041;SDS011;5061;49.068;12.058;2023-04-24T18:38:48;1.90;;;1.70;;
10041;SDS011;5061;49.068;12.058;2023-04-24T18:42:08;1.73;;;1.30;;
10041;SDS011;5061;49.068;12.058;2023-04-24T18:45:29;10.03;;;1.70;;
10041;SDS011;5061;49.068;12.058;2023-04-24T18:48:50;1.80;;;1.67;;
10041;SDS011;5061;49.068;12.058;2023-04-24T18:52:10;2.53;;;1.70;;
10041;SDS011;5061;49.068;12.058;2023-04-24T18:55:31;2.20;;;2.00;;
10041;SDS011;5061;49.068;12.058;2023-04-24T18:58:54;3.30;;;2.30;;
10041;SDS011;5061;49.068;12.058;2023-04-24T19:02:14;2.47;;;2.27;;
10041;SDS011;5061;49.068;12.058;2023-04-24T19:05:35;2.40;;;1.97;;
10041;SDS011;5061;49.068;12.058;2023-04-24T19:08:56;5.67;;;3.00;;
10041;SDS011;5061;49.068;12.058;2023-04-24T19:12:16;1.70;;;1.60;;
10041;SDS011;5061;49.068;12.058;2023-04-24T19:15:37;2.50;;;2.23;;
10041;SDS011;5061;49.068;12.058;2023-04-24T19:18:59;2.80;;;2.30;;
10041;SDS011;5061;49.068;12.058;2023-04-24T19:22:19;1.73;;;1.63;;
10041;SDS011;5061;49.068;12.058;2023-04-24T19:25:40;1.40;;;1.30;;
10041;SDS011;5061;49.068;12.058;2023-04-24T19:29:01;1.87;;;1.67;;
10041;SDS011;5061;49.068;12.058;2023-04-24T19:32:21;1.90;;;1.80;;
10041;SDS011;5061;49.068;12.058;2023-04-24T19:35:42;2.27;;;2.07;;
10041;SDS011;5061;49.068;12.058;2023-04-24T19:39:03;1.87;;;1.70;;
10041;SDS011;5061;49.068;12.058;2023-04-24T19:42:23;1.97;;;1.77;;
10041;SDS011;5061;49.068;12.058;2023-04-24T19:45:44;2.20;;;2.00;;
10041;SDS011;5061;49.068;12.058;2023-04-24T19:49:05;1.80;;;1.70;;
10041;SDS011;5061;49.068;12.058;2023-04-24T19:52:25;1.90;;;1.80;;
10041;SDS011;5061;49.068;12.058;2023-04-24T19:55:46;1.90;;;1.60;;
10041;SDS011;5061;49.068;12.058;2023-04-24T19:59:07;2.10;;;1.90;;
10041;SDS011;5061;49.068;12.058;2023-04-24T20:02:28;2.83;;;2.10;;
10041;SDS011;5061;49.068;12.058;2023-04-24T20:05:49;2.23;;;1.97;;
10041;SDS011;5061;49.068;12.058;2023-04-24T20:09:10;2.83;;;1.90;;
10041;SDS011;5061;49.068;12.058;2023-04-24T20:12:31;2.57;;;2.37;;
10041;SDS011;5061;49.068;12.058;2023-04-24T20:15:52;2.00;;;1.80;;
10041;SDS011;5061;49.068;12.058;2023-04-24T20:19:12;2.33;;;1.90;;
10041;SDS011;5061;49.068;12.058;2023-04-24T20:22:33;3.30;;;2.17;;
10041;SDS011;5061;49.068;12.058;2023-04-24T20:25:58;3.20;;;2.47;;
10041;SDS011;5061;49.068;12.058;2023-04-24T20:29:19;2.27;;;2.07;;